sensor_id;sensor_type;location;lat;lon;timestamp;temperature;humidity
16198;DHT22;8206;51.440;6.914;2022-12-13T00:01:11;-3.80;99.90
16198;DHT22;8206;51.440;6.914;2022-12-13T00:03:38;-3.80;99.90
16198;DHT22;8206;51.440;6.914;2022-12-13T00:06:05;-3.80;99.90
16198;DHT22;8206;51.440;6.914;2022-12-13T00:08:33;-3.80;99.90
16198;DHT22;8206;51.440;6.914;2022-12-13T00:11:01;-3.80;99.90
16198;DHT22;8206;51.440;6.914;2022-12-13T00:13:29;-3.80;99.90
16198;DHT22;8206;51.440;6.914;2022-12-13T00:15:56;-3.80;99.90
16198;DHT22;8206;51.440;6.914;2022-12-13T00:18:23;-3.80;99.90
16198;DHT22;8206;51.440;6.914;2022-12-13T00:20:50;-3.80;99.90
16198;DHT22;8206;51.440;6.914;2022-12-13T00:23:17;-3.80;99.90
16198;DHT22;8206;51.440;6.914;2022-12-13T00:25:46;-3.80;99.90
16198;DHT22;8206;51.440;6.914;2022-12-13T00:28:13;-3.90;99.90
16198;DHT22;8206;51.440;6.914;2022-12-13T00:30:41;-3.90;99.90
16198;DHT22;8206;51.440;6.914;2022-12-13T00:33:08;-3.90;99.90
16198;DHT22;8206;51.440;6.914;2022-12-13T00:35:39;-4.00;99.90
16198;DHT22;8206;51.440;6.914;2022-12-13T00:38:06;-4.00;99.90
16198;DHT22;8206;51.440;6.914;2022-12-13T00:40:34;-4.00;99.90
16198;DHT22;8206;51.440;6.914;2022-12-13T00:43:02;-4.10;99.90
16198;DHT22;8206;51.440;6.914;2022-12-13T00:45:29;-4.10;99.90
16198;DHT22;8206;51.440;6.914;2022-12-13T00:47:56;-4.10;99.90
16198;DHT22;8206;51.440;6.914;2022-12-13T00:50:23;-4.10;99.90
16198;DHT22;8206;51.440;6.914;2022-12-13T00:52:49;-4.20;99.90
16198;DHT22;8206;51.440;6.914;2022-12-13T00:55:16;-4.20;99.90
16198;DHT22;8206;51.440;6.914;2022-12-13T00:57:44;-4.20;99.90
16198;DHT22;8206;51.440;6.914;2022-12-13T01:00:12;-4.20;99.90
16198;DHT22;8206;51.440;6.914;2022-12-13T01:02:39;-4.20;99.90
16198;DHT22;8206;51.440;6.914;2022-12-13T01:05:08;-4.20;99.90
16198;DHT22;8206;51.440;6.914;2022-12-13T01:07:36;-4.20;99.90
16198;DHT22;8206;51.440;6.914;2022-12-13T01:10:04;-4.30;99.90
16198;DHT22;8206;51.440;6.914;2022-12-13T01:12:31;-4.30;99.90
16198;DHT22;8206;51.440;6.914;2022-12-13T01:14:58;-4.30;99.90
16198;DHT22;8206;51.440;6.914;2022-12-13T01:17:27;-4.40;99.90
16198;DHT22;8206;51.440;6.914;2022-12-13T01:19:55;-4.40;99.90
16198;DHT22;8206;51.440;6.914;2022-12-13T01:22:22;-4.40;99.90
16198;DHT22;8206;51.440;6.914;2022-12-13T01:24:49;-4.40;99.90
16198;DHT22;8206;51.440;6.914;2022-12-13T01:27:15;-4.40;99.90
16198;DHT22;8206;51.440;6.914;2022-12-13T01:29:42;-4.50;99.90
16198;DHT22;8206;51.440;6.914;2022-12-13T01:32:09;-4.50;99.90
16198;DHT22;8206;51.440;6.914;2022-12-13T01:34:37;-4.50;99.90
16198;DHT22;8206;51.440;6.914;2022-12-13T01:37:03;-4.50;99.90
16198;DHT22;8206;51.440;6.914;2022-12-13T01:39:30;-4.60;99.90
16198;DHT22;8206;51.440;6.914;2022-12-13T01:41:57;-4.50;99.90
16198;DHT22;8206;51.440;6.914;2022-12-13T01:44:57;-4.50;99.90
16198;DHT22;8206;51.440;6.914;2022-12-13T01:47:27;-4.60;99.90
16198;DHT22;8206;51.440;6.914;2022-12-13T01:49:58;-4.60;99.90
16198;DHT22;8206;51.440;6.914;2022-12-13T01:52:28;-4.50;99.90
16198;DHT22;8206;51.440;6.914;2022-12-13T01:54:56;-4.60;99.90
16198;DHT22;8206;51.440;6.914;2022-12-13T01:57:23;-4.60;99.90
16198;DHT22;8206;51.440;6.914;2022-12-13T01:59:51;-4.60;99.90
16198;DHT22;8206;51.440;6.914;2022-12-13T02:02:18;-4.60;99.90
16198;DHT22;8206;51.440;6.914;2022-12-13T02:04:51;-4.60;99.90
16198;DHT22;8206;51.440;6.914;2022-12-13T02:07:24;-4.60;99.90
16198;DHT22;8206;51.440;6.914;2022-12-13T02:09:52;-4.60;99.90
16198;DHT22;8206;51.440;6.914;2022-12-13T02:12:20;-4.70;99.90
16198;DHT22;8206;51.440;6.914;2022-12-13T02:14:47;-4.70;99.90
16198;DHT22;8206;51.440;6.914;2022-12-13T02:17:21;-4.70;99.90
16198;DHT22;8206;51.440;6.914;2022-12-13T02:20:11;-4.70;99.90
16198;DHT22;8206;51.440;6.914;2022-12-13T02:22:54;-4.80;99.90
16198;DHT22;8206;51.440;6.914;2022-12-13T02:25:48;-4.80;99.90
16198;DHT22;8206;51.440;6.914;2022-12-13T02:28:32;-4.80;99.90
16198;DHT22;8206;51.440;6.914;2022-12-13T02:31:07;-4.80;99.90
16198;DHT22;8206;51.440;6.914;2022-12-13T02:33:41;-4.80;99.90
16198;DHT22;8206;51.440;6.914;2022-12-13T02:36:13;-4.90;99.90
16198;DHT22;8206;51.440;6.914;2022-12-13T02:38:51;-4.90;99.90
16198;DHT22;8206;51.440;6.914;2022-12-13T02:41:23;-4.90;99.90
16198;DHT22;8206;51.440;6.914;2022-12-13T02:43:57;-4.90;99.90
16198;DHT22;8206;51.440;6.914;2022-12-13T02:46:28;-4.90;99.90
16198;DHT22;8206;51.440;6.914;2022-12-13T02:48:56;-5.00;99.90
16198;DHT22;8206;51.440;6.914;2022-12-13T02:51:24;-5.00;99.90
16198;DHT22;8206;51.440;6.914;2022-12-13T02:53:52;-5.00;99.90
16198;DHT22;8206;51.440;6.914;2022-12-13T02:56:19;-5.00;99.90
16198;DHT22;8206;51.440;6.914;2022-12-13T02:58:49;-5.00;99.90
16198;DHT22;8206;51.440;6.914;2022-12-13T03:01:42;-5.00;99.90
16198;DHT22;8206;51.440;6.914;2022-12-13T03:04:20;-5.00;99.90
16198;DHT22;8206;51.440;6.914;2022-12-13T03:06:56;-5.10;99.90
16198;DHT22;8206;51.440;6.914;2022-12-13T03:09:35;-5.10;99.90
16198;DHT22;8206;51.440;6.914;2022-12-13T03:12:16;-5.10;99.90
16198;DHT22;8206;51.440;6.914;2022-12-13T03:15:07;-5.10;99.90
16198;DHT22;8206;51.440;6.914;2022-12-13T03:17:42;-5.10;99.90
16198;DHT22;8206;51.440;6.914;2022-12-13T03:20:14;-5.20;99.90
16198;DHT22;8206;51.440;6.914;2022-12-13T03:22:42;-5.20;99.90
16198;DHT22;8206;51.440;6.914;2022-12-13T03:25:08;-5.20;99.90
16198;DHT22;8206;51.440;6.914;2022-12-13T03:27:35;-5.20;99.90
16198;DHT22;8206;51.440;6.914;2022-12-13T03:30:02;-5.20;99.90
16198;DHT22;8206;51.440;6.914;2022-12-13T03:32:29;-5.20;99.90
16198;DHT22;8206;51.440;6.914;2022-12-13T03:34:57;-5.20;99.90
16198;DHT22;8206;51.440;6.914;2022-12-13T03:37:24;-5.20;99.90
16198;DHT22;8206;51.440;6.914;2022-12-13T03:39:51;-5.20;99.90
16198;DHT22;8206;51.440;6.914;2022-12-13T03:42:18;-5.20;99.90
16198;DHT22;8206;51.440;6.914;2022-12-13T03:44:45;-5.20;99.90
16198;DHT22;8206;51.440;6.914;2022-12-13T03:47:11;-5.30;99.90
16198;DHT22;8206;51.440;6.914;2022-12-13T03:49:38;-5.30;99.90
16198;DHT22;8206;51.440;6.914;2022-12-13T03:52:06;-5.30;99.90
16198;DHT22;8206;51.440;6.914;2022-12-13T03:54:33;-5.30;99.90
16198;DHT22;8206;51.440;6.914;2022-12-13T03:57:00;-5.30;99.90
16198;DHT22;8206;51.440;6.914;2022-12-13T03:59:27;-5.40;99.90
16198;DHT22;8206;51.440;6.914;2022-12-13T04:01:54;-5.30;99.90
16198;DHT22;8206;51.440;6.914;2022-12-13T04:04:20;-5.30;99.90
16198;DHT22;8206;51.440;6.914;2022-12-13T04:06:47;-5.30;99.90
16198;DHT22;8206;51.440;6.914;2022-12-13T04:09:15;-5.30;99.90
16198;DHT22;8206;51.440;6.914;2022-12-13T04:11:42;-5.40;99.90
16198;DHT22;8206;51.440;6.914;2022-12-13T04:14:26;-5.40;99.90
16198;DHT22;8206;51.440;6.914;2022-12-13T04:16:53;-5.40;99.90
16198;DHT22;8206;51.440;6.914;2022-12-13T04:19:19;-5.40;99.90
16198;DHT22;8206;51.440;6.914;2022-12-13T04:21:46;-5.50;99.90
16198;DHT22;8206;51.440;6.914;2022-12-13T04:24:14;-5.40;99.90
16198;DHT22;8206;51.440;6.914;2022-12-13T04:26:41;-5.40;99.90
16198;DHT22;8206;51.440;6.914;2022-12-13T04:29:08;-5.50;99.90
16198;DHT22;8206;51.440;6.914;2022-12-13T04:31:34;-5.50;99.90
16198;DHT22;8206;51.440;6.914;2022-12-13T04:34:01;-5.50;99.90
16198;DHT22;8206;51.440;6.914;2022-12-13T04:36:28;-5.50;99.90
16198;DHT22;8206;51.440;6.914;2022-12-13T04:38:55;-5.50;99.90
16198;DHT22;8206;51.440;6.914;2022-12-13T04:41:23;-5.50;99.90
16198;DHT22;8206;51.440;6.914;2022-12-13T04:43:51;-5.50;99.90
16198;DHT22;8206;51.440;6.914;2022-12-13T04:46:18;-5.50;99.90
16198;DHT22;8206;51.440;6.914;2022-12-13T04:48:44;-5.50;99.90
16198;DHT22;8206;51.440;6.914;2022-12-13T04:51:11;-5.50;99.90
16198;DHT22;8206;51.440;6.914;2022-12-13T04:53:38;-5.50;99.90
16198;DHT22;8206;51.440;6.914;2022-12-13T04:56:06;-5.50;99.90
16198;DHT22;8206;51.440;6.914;2022-12-13T04:58:34;-5.60;99.90
16198;DHT22;8206;51.440;6.914;2022-12-13T05:01:00;-5.60;99.90
16198;DHT22;8206;51.440;6.914;2022-12-13T05:03:27;-5.60;99.90
16198;DHT22;8206;51.440;6.914;2022-12-13T05:05:54;-5.60;99.90
16198;DHT22;8206;51.440;6.914;2022-12-13T05:08:21;-5.60;99.90
16198;DHT22;8206;51.440;6.914;2022-12-13T05:10:48;-5.70;99.90
16198;DHT22;8206;51.440;6.914;2022-12-13T05:13:14;-5.70;99.90
16198;DHT22;8206;51.440;6.914;2022-12-13T05:15:43;-5.70;99.90
16198;DHT22;8206;51.440;6.914;2022-12-13T05:18:10;-5.70;99.90
16198;DHT22;8206;51.440;6.914;2022-12-13T05:20:37;-5.80;99.90
16198;DHT22;8206;51.440;6.914;2022-12-13T05:23:04;-5.80;99.90
16198;DHT22;8206;51.440;6.914;2022-12-13T05:25:32;-5.80;99.90
16198;DHT22;8206;51.440;6.914;2022-12-13T05:27:58;-5.80;99.90
16198;DHT22;8206;51.440;6.914;2022-12-13T05:30:25;-5.80;99.90
16198;DHT22;8206;51.440;6.914;2022-12-13T05:32:53;-5.80;99.90
16198;DHT22;8206;51.440;6.914;2022-12-13T05:35:20;-5.80;99.90
16198;DHT22;8206;51.440;6.914;2022-12-13T05:37:47;-5.80;99.90
16198;DHT22;8206;51.440;6.914;2022-12-13T05:40:13;-5.80;99.90
16198;DHT22;8206;51.440;6.914;2022-12-13T05:42:40;-5.80;99.90
16198;DHT22;8206;51.440;6.914;2022-12-13T05:45:08;-5.80;99.90
16198;DHT22;8206;51.440;6.914;2022-12-13T05:47:35;-5.80;99.90
16198;DHT22;8206;51.440;6.914;2022-12-13T05:50:03;-5.80;99.90
16198;DHT22;8206;51.440;6.914;2022-12-13T05:52:30;-5.80;99.90
16198;DHT22;8206;51.440;6.914;2022-12-13T05:54:57;-5.80;99.90
16198;DHT22;8206;51.440;6.914;2022-12-13T05:57:24;-5.90;99.90
16198;DHT22;8206;51.440;6.914;2022-12-13T05:59:51;-5.90;99.90
16198;DHT22;8206;51.440;6.914;2022-12-13T06:02:17;-5.90;99.90
16198;DHT22;8206;51.440;6.914;2022-12-13T06:04:44;-5.90;99.90
16198;DHT22;8206;51.440;6.914;2022-12-13T06:07:12;-5.90;99.90
16198;DHT22;8206;51.440;6.914;2022-12-13T06:09:40;-5.90;99.90
16198;DHT22;8206;51.440;6.914;2022-12-13T06:12:07;-5.90;99.90
16198;DHT22;8206;51.440;6.914;2022-12-13T06:14:35;-5.90;99.90
16198;DHT22;8206;51.440;6.914;2022-12-13T06:17:02;-6.00;99.90
16198;DHT22;8206;51.440;6.914;2022-12-13T06:19:29;-6.00;99.90
16198;DHT22;8206;51.440;6.914;2022-12-13T06:21:55;-6.00;99.90
16198;DHT22;8206;51.440;6.914;2022-12-13T06:24:24;-6.00;99.90
16198;DHT22;8206;51.440;6.914;2022-12-13T06:26:52;-6.00;99.90
16198;DHT22;8206;51.440;6.914;2022-12-13T06:29:20;-6.00;99.90
16198;DHT22;8206;51.440;6.914;2022-12-13T06:31:47;-6.00;99.90
16198;DHT22;8206;51.440;6.914;2022-12-13T06:34:16;-6.00;99.90
16198;DHT22;8206;51.440;6.914;2022-12-13T06:36:43;-6.00;99.90
16198;DHT22;8206;51.440;6.914;2022-12-13T06:39:10;-5.90;99.90
16198;DHT22;8206;51.440;6.914;2022-12-13T06:41:38;-5.90;99.90
16198;DHT22;8206;51.440;6.914;2022-12-13T06:44:05;-5.90;99.90
16198;DHT22;8206;51.440;6.914;2022-12-13T06:46:32;-6.00;99.90
16198;DHT22;8206;51.440;6.914;2022-12-13T06:48:59;-6.00;99.90
16198;DHT22;8206;51.440;6.914;2022-12-13T06:51:26;-6.00;99.90
16198;DHT22;8206;51.440;6.914;2022-12-13T06:53:53;-6.10;99.90
16198;DHT22;8206;51.440;6.914;2022-12-13T06:56:20;-6.10;99.90
16198;DHT22;8206;51.440;6.914;2022-12-13T06:58:49;-6.00;99.90
16198;DHT22;8206;51.440;6.914;2022-12-13T07:01:17;-6.00;99.90
16198;DHT22;8206;51.440;6.914;2022-12-13T07:03:44;-6.00;99.90
16198;DHT22;8206;51.440;6.914;2022-12-13T07:06:13;-5.90;99.90
16198;DHT22;8206;51.440;6.914;2022-12-13T07:08:41;-5.90;99.90
16198;DHT22;8206;51.440;6.914;2022-12-13T07:11:12;-6.00;99.90
16198;DHT22;8206;51.440;6.914;2022-12-13T07:13:40;-6.00;99.90
16198;DHT22;8206;51.440;6.914;2022-12-13T07:16:08;-6.00;99.90
16198;DHT22;8206;51.440;6.914;2022-12-13T07:18:35;-6.00;99.90
16198;DHT22;8206;51.440;6.914;2022-12-13T07:21:03;-6.00;99.90
16198;DHT22;8206;51.440;6.914;2022-12-13T07:23:30;-6.00;99.90
16198;DHT22;8206;51.440;6.914;2022-12-13T07:25:57;-6.00;99.90
16198;DHT22;8206;51.440;6.914;2022-12-13T07:28:24;-6.10;99.90
16198;DHT22;8206;51.440;6.914;2022-12-13T07:30:50;-6.00;99.90
16198;DHT22;8206;51.440;6.914;2022-12-13T07:33:18;-6.10;99.90
16198;DHT22;8206;51.440;6.914;2022-12-13T07:35:45;-6.00;99.90
16198;DHT22;8206;51.440;6.914;2022-12-13T07:38:12;-6.00;99.90
16198;DHT22;8206;51.440;6.914;2022-12-13T07:40:39;-6.00;99.90
16198;DHT22;8206;51.440;6.914;2022-12-13T07:43:10;-6.00;99.90
16198;DHT22;8206;51.440;6.914;2022-12-13T07:45:37;-6.00;99.90
16198;DHT22;8206;51.440;6.914;2022-12-13T07:48:05;-6.10;99.90
16198;DHT22;8206;51.440;6.914;2022-12-13T07:50:34;-6.10;99.90
16198;DHT22;8206;51.440;6.914;2022-12-13T07:53:04;-6.10;99.90
16198;DHT22;8206;51.440;6.914;2022-12-13T07:55:31;-6.10;99.90
16198;DHT22;8206;51.440;6.914;2022-12-13T07:58:03;-6.00;99.90
16198;DHT22;8206;51.440;6.914;2022-12-13T08:00:30;-6.00;99.90
16198;DHT22;8206;51.440;6.914;2022-12-13T08:02:57;-6.00;99.90
16198;DHT22;8206;51.440;6.914;2022-12-13T08:05:25;-6.00;99.90
16198;DHT22;8206;51.440;6.914;2022-12-13T08:07:54;-5.90;99.90
16198;DHT22;8206;51.440;6.914;2022-12-13T08:10:20;-5.90;99.90
16198;DHT22;8206;51.440;6.914;2022-12-13T08:12:47;-5.90;99.90
16198;DHT22;8206;51.440;6.914;2022-12-13T08:15:15;-5.90;99.90
16198;DHT22;8206;51.440;6.914;2022-12-13T08:17:42;-5.90;1.00
16198;DHT22;8206;51.440;6.914;2022-12-13T08:20:09;-5.80;1.00
16198;DHT22;8206;51.440;6.914;2022-12-13T08:22:36;-5.80;99.90
16198;DHT22;8206;51.440;6.914;2022-12-13T08:25:05;-5.70;99.90
16198;DHT22;8206;51.440;6.914;2022-12-13T08:27:32;-5.70;1.00
16198;DHT22;8206;51.440;6.914;2022-12-13T08:29:59;-5.60;1.00
16198;DHT22;8206;51.440;6.914;2022-12-13T08:32:26;-5.60;99.90
16198;DHT22;8206;51.440;6.914;2022-12-13T08:34:52;-5.50;1.00
16198;DHT22;8206;51.440;6.914;2022-12-13T08:37:19;-5.50;1.00
16198;DHT22;8206;51.440;6.914;2022-12-13T08:39:46;-5.50;1.00
16198;DHT22;8206;51.440;6.914;2022-12-13T08:42:15;-5.40;1.00
16198;DHT22;8206;51.440;6.914;2022-12-13T08:44:44;-5.40;1.00
16198;DHT22;8206;51.440;6.914;2022-12-13T08:47:10;-5.30;99.90
16198;DHT22;8206;51.440;6.914;2022-12-13T08:49:37;-5.30;99.90
16198;DHT22;8206;51.440;6.914;2022-12-13T08:52:05;-5.20;99.90
16198;DHT22;8206;51.440;6.914;2022-12-13T08:54:32;-5.10;99.90
16198;DHT22;8206;51.440;6.914;2022-12-13T08:56:59;-5.10;99.90
16198;DHT22;8206;51.440;6.914;2022-12-13T08:59:27;-5.10;99.90
16198;DHT22;8206;51.440;6.914;2022-12-13T09:01:53;-5.00;99.90
16198;DHT22;8206;51.440;6.914;2022-12-13T09:04:20;-5.00;99.90
16198;DHT22;8206;51.440;6.914;2022-12-13T09:06:47;-4.90;99.90
16198;DHT22;8206;51.440;6.914;2022-12-13T09:09:14;-4.80;99.90
16198;DHT22;8206;51.440;6.914;2022-12-13T09:11:41;-4.80;99.90
16198;DHT22;8206;51.440;6.914;2022-12-13T09:14:08;-4.80;99.90
16198;DHT22;8206;51.440;6.914;2022-12-13T09:16:36;-4.70;99.90
16198;DHT22;8206;51.440;6.914;2022-12-13T09:19:03;-4.70;99.90
16198;DHT22;8206;51.440;6.914;2022-12-13T09:21:30;-4.60;99.90
16198;DHT22;8206;51.440;6.914;2022-12-13T09:23:57;-4.60;99.90
16198;DHT22;8206;51.440;6.914;2022-12-13T09:26:24;-4.50;99.90
16198;DHT22;8206;51.440;6.914;2022-12-13T09:28:50;-4.50;99.90
16198;DHT22;8206;51.440;6.914;2022-12-13T09:31:18;-4.40;99.90
16198;DHT22;8206;51.440;6.914;2022-12-13T09:33:47;-4.30;99.90
16198;DHT22;8206;51.440;6.914;2022-12-13T09:36:15;-4.20;99.90
16198;DHT22;8206;51.440;6.914;2022-12-13T09:38:43;-4.10;99.90
16198;DHT22;8206;51.440;6.914;2022-12-13T09:41:18;-3.90;99.90
16198;DHT22;8206;51.440;6.914;2022-12-13T09:43:50;-3.90;99.90
16198;DHT22;8206;51.440;6.914;2022-12-13T09:46:25;-3.80;99.90
16198;DHT22;8206;51.440;6.914;2022-12-13T09:48:54;-3.70;99.90
16198;DHT22;8206;51.440;6.914;2022-12-13T09:51:23;-3.70;99.90
16198;DHT22;8206;51.440;6.914;2022-12-13T09:53:52;-3.60;99.90
16198;DHT22;8206;51.440;6.914;2022-12-13T09:56:20;-3.60;99.90
16198;DHT22;8206;51.440;6.914;2022-12-13T09:58:48;-3.50;99.90
16198;DHT22;8206;51.440;6.914;2022-12-13T10:01:16;-3.40;99.90
16198;DHT22;8206;51.440;6.914;2022-12-13T10:03:45;-3.40;99.90
16198;DHT22;8206;51.440;6.914;2022-12-13T10:06:16;-3.50;99.90
16198;DHT22;8206;51.440;6.914;2022-12-13T10:08:45;-3.50;99.90
16198;DHT22;8206;51.440;6.914;2022-12-13T10:11:14;-3.40;99.90
16198;DHT22;8206;51.440;6.914;2022-12-13T10:13:43;-3.40;99.90
16198;DHT22;8206;51.440;6.914;2022-12-13T10:16:15;-3.40;99.90
16198;DHT22;8206;51.440;6.914;2022-12-13T10:18:43;-3.30;99.90
16198;DHT22;8206;51.440;6.914;2022-12-13T10:21:12;-3.30;99.90
16198;DHT22;8206;51.440;6.914;2022-12-13T10:23:41;-3.20;99.90
16198;DHT22;8206;51.440;6.914;2022-12-13T10:26:09;-3.20;99.90
16198;DHT22;8206;51.440;6.914;2022-12-13T10:28:36;-3.20;99.90
16198;DHT22;8206;51.440;6.914;2022-12-13T10:31:04;-3.20;99.90
16198;DHT22;8206;51.440;6.914;2022-12-13T10:33:32;-3.20;99.90
16198;DHT22;8206;51.440;6.914;2022-12-13T10:36:07;-3.10;99.90
16198;DHT22;8206;51.440;6.914;2022-12-13T10:38:37;-3.10;99.90
16198;DHT22;8206;51.440;6.914;2022-12-13T10:41:25;-3.10;99.90
16198;DHT22;8206;51.440;6.914;2022-12-13T10:44:07;-3.10;99.90
16198;DHT22;8206;51.440;6.914;2022-12-13T10:46:34;-3.00;99.90
16198;DHT22;8206;51.440;6.914;2022-12-13T10:49:01;-3.10;99.90
16198;DHT22;8206;51.440;6.914;2022-12-13T10:51:37;-3.00;99.90
16198;DHT22;8206;51.440;6.914;2022-12-13T10:54:04;-3.00;99.90
16198;DHT22;8206;51.440;6.914;2022-12-13T10:56:42;-3.00;99.90
16198;DHT22;8206;51.440;6.914;2022-12-13T10:59:23;-2.90;99.90
16198;DHT22;8206;51.440;6.914;2022-12-13T11:01:50;-2.80;99.90
16198;DHT22;8206;51.440;6.914;2022-12-13T11:04:22;-2.70;99.90
16198;DHT22;8206;51.440;6.914;2022-12-13T11:06:49;-2.70;99.90
16198;DHT22;8206;51.440;6.914;2022-12-13T11:09:24;-2.60;99.90
16198;DHT22;8206;51.440;6.914;2022-12-13T11:11:55;-2.50;99.90
16198;DHT22;8206;51.440;6.914;2022-12-13T11:14:25;-2.30;99.90
16198;DHT22;8206;51.440;6.914;2022-12-13T11:16:55;-2.30;99.90
16198;DHT22;8206;51.440;6.914;2022-12-13T11:19:26;-2.10;99.90
16198;DHT22;8206;51.440;6.914;2022-12-13T11:21:56;-2.10;99.90
16198;DHT22;8206;51.440;6.914;2022-12-13T11:24:26;-2.00;99.90
16198;DHT22;8206;51.440;6.914;2022-12-13T11:26:58;-1.90;99.90
16198;DHT22;8206;51.440;6.914;2022-12-13T11:29:49;-1.80;99.90
16198;DHT22;8206;51.440;6.914;2022-12-13T11:32:23;-1.70;99.90
16198;DHT22;8206;51.440;6.914;2022-12-13T11:34:59;-1.50;99.90
16198;DHT22;8206;51.440;6.914;2022-12-13T11:37:35;-1.40;99.90
16198;DHT22;8206;51.440;6.914;2022-12-13T11:40:12;-1.40;99.90
16198;DHT22;8206;51.440;6.914;2022-12-13T11:42:46;-1.30;99.90
16198;DHT22;8206;51.440;6.914;2022-12-13T11:45:17;-1.20;99.90
16198;DHT22;8206;51.440;6.914;2022-12-13T11:47:47;-1.20;99.90
16198;DHT22;8206;51.440;6.914;2022-12-13T11:50:17;-1.10;99.90
16198;DHT22;8206;51.440;6.914;2022-12-13T11:52:49;-1.00;99.90
16198;DHT22;8206;51.440;6.914;2022-12-13T11:55:21;-0.90;99.90
16198;DHT22;8206;51.440;6.914;2022-12-13T11:57:56;-0.80;99.90
16198;DHT22;8206;51.440;6.914;2022-12-13T12:00:31;-0.70;99.90
16198;DHT22;8206;51.440;6.914;2022-12-13T12:03:04;-0.50;99.90
16198;DHT22;8206;51.440;6.914;2022-12-13T12:05:34;-0.40;99.90
16198;DHT22;8206;51.440;6.914;2022-12-13T12:08:08;-0.40;99.90
16198;DHT22;8206;51.440;6.914;2022-12-13T12:10:38;-0.30;99.90
16198;DHT22;8206;51.440;6.914;2022-12-13T12:13:14;-0.30;99.90
16198;DHT22;8206;51.440;6.914;2022-12-13T12:15:45;-0.20;99.90
16198;DHT22;8206;51.440;6.914;2022-12-13T12:18:14;-0.20;99.90
16198;DHT22;8206;51.440;6.914;2022-12-13T12:20:55;-0.10;99.90
16198;DHT22;8206;51.440;6.914;2022-12-13T12:23:32;-0.10;99.90
16198;DHT22;8206;51.440;6.914;2022-12-13T12:26:06;-0.10;99.90
16198;DHT22;8206;51.440;6.914;2022-12-13T12:28:46;0.00;99.90
16198;DHT22;8206;51.440;6.914;2022-12-13T12:31:20;0.10;99.90
16198;DHT22;8206;51.440;6.914;2022-12-13T12:33:55;0.10;99.90
16198;DHT22;8206;51.440;6.914;2022-12-13T12:36:35;0.20;99.90
16198;DHT22;8206;51.440;6.914;2022-12-13T12:39:17;0.30;99.90
16198;DHT22;8206;51.440;6.914;2022-12-13T12:41:54;0.30;99.90
16198;DHT22;8206;51.440;6.914;2022-12-13T12:44:38;0.20;99.90
16198;DHT22;8206;51.440;6.914;2022-12-13T12:47:18;0.10;99.90
16198;DHT22;8206;51.440;6.914;2022-12-13T12:50:00;-0.10;99.90
16198;DHT22;8206;51.440;6.914;2022-12-13T12:52:38;-0.20;99.90
16198;DHT22;8206;51.440;6.914;2022-12-13T12:55:13;-0.20;99.90
16198;DHT22;8206;51.440;6.914;2022-12-13T12:57:48;-0.30;99.90
16198;DHT22;8206;51.440;6.914;2022-12-13T13:00:20;-0.30;99.90
16198;DHT22;8206;51.440;6.914;2022-12-13T13:02:53;-0.40;99.90
16198;DHT22;8206;51.440;6.914;2022-12-13T13:05:27;-0.40;99.90
16198;DHT22;8206;51.440;6.914;2022-12-13T13:07:58;-0.40;99.90
16198;DHT22;8206;51.440;6.914;2022-12-13T13:10:27;-0.30;99.90
16198;DHT22;8206;51.440;6.914;2022-12-13T13:12:54;-0.20;99.90
16198;DHT22;8206;51.440;6.914;2022-12-13T13:15:54;0.00;99.90
16198;DHT22;8206;51.440;6.914;2022-12-13T13:18:41;0.00;99.90
16198;DHT22;8206;51.440;6.914;2022-12-13T13:21:24;0.10;99.90
16198;DHT22;8206;51.440;6.914;2022-12-13T13:24:04;0.20;99.90
16198;DHT22;8206;51.440;6.914;2022-12-13T13:26:32;0.20;99.90
16198;DHT22;8206;51.440;6.914;2022-12-13T13:32:24;0.40;99.90
16198;DHT22;8206;51.440;6.914;2022-12-13T13:34:51;0.50;99.90
16198;DHT22;8206;51.440;6.914;2022-12-13T13:37:44;0.60;99.90
16198;DHT22;8206;51.440;6.914;2022-12-13T13:40:31;0.60;99.90
16198;DHT22;8206;51.440;6.914;2022-12-13T13:43:13;0.60;99.90
16198;DHT22;8206;51.440;6.914;2022-12-13T13:45:55;0.70;99.90
16198;DHT22;8206;51.440;6.914;2022-12-13T13:52:04;0.70;99.90
16198;DHT22;8206;51.440;6.914;2022-12-13T13:58:14;0.60;99.90
16198;DHT22;8206;51.440;6.914;2022-12-13T14:01:12;0.60;99.90
16198;DHT22;8206;51.440;6.914;2022-12-13T14:04:20;0.70;99.90
16198;DHT22;8206;51.440;6.914;2022-12-13T14:07:24;0.70;99.90
16198;DHT22;8206;51.440;6.914;2022-12-13T14:10:15;0.60;99.90
16198;DHT22;8206;51.440;6.914;2022-12-13T14:16:28;0.50;99.90
16198;DHT22;8206;51.440;6.914;2022-12-13T14:19:20;0.40;99.90
16198;DHT22;8206;51.440;6.914;2022-12-13T14:25:16;0.30;99.90
16198;DHT22;8206;51.440;6.914;2022-12-13T14:27:48;0.30;99.90
16198;DHT22;8206;51.440;6.914;2022-12-13T14:30:20;0.20;99.90
16198;DHT22;8206;51.440;6.914;2022-12-13T14:32:48;0.10;99.90
16198;DHT22;8206;51.440;6.914;2022-12-13T14:35:22;0.00;99.90
16198;DHT22;8206;51.440;6.914;2022-12-13T14:37:56;0.00;99.90
16198;DHT22;8206;51.440;6.914;2022-12-13T14:40:27;0.00;99.90
16198;DHT22;8206;51.440;6.914;2022-12-13T14:42:55;-0.10;99.90
16198;DHT22;8206;51.440;6.914;2022-12-13T14:45:23;-0.10;99.90
16198;DHT22;8206;51.440;6.914;2022-12-13T14:47:51;-0.10;99.90
16198;DHT22;8206;51.440;6.914;2022-12-13T14:50:19;-0.20;99.90
16198;DHT22;8206;51.440;6.914;2022-12-13T14:52:47;-0.30;99.90
16198;DHT22;8206;51.440;6.914;2022-12-13T14:55:25;-0.40;99.90
16198;DHT22;8206;51.440;6.914;2022-12-13T14:57:54;-0.50;99.90
16198;DHT22;8206;51.440;6.914;2022-12-13T15:00:24;-0.60;99.90
16198;DHT22;8206;51.440;6.914;2022-12-13T15:02:53;-0.60;99.90
16198;DHT22;8206;51.440;6.914;2022-12-13T15:05:25;-0.60;99.90
16198;DHT22;8206;51.440;6.914;2022-12-13T15:07:52;-0.70;99.90
16198;DHT22;8206;51.440;6.914;2022-12-13T15:10:23;-0.70;99.90
16198;DHT22;8206;51.440;6.914;2022-12-13T15:12:50;-0.70;99.90
16198;DHT22;8206;51.440;6.914;2022-12-13T15:15:22;-0.80;99.90
16198;DHT22;8206;51.440;6.914;2022-12-13T15:18:04;-0.80;99.90
16198;DHT22;8206;51.440;6.914;2022-12-13T15:20:31;-0.90;99.90
16198;DHT22;8206;51.440;6.914;2022-12-13T15:23:01;-0.90;99.90
16198;DHT22;8206;51.440;6.914;2022-12-13T15:25:31;-0.90;99.90
16198;DHT22;8206;51.440;6.914;2022-12-13T15:27:59;-0.90;99.90
16198;DHT22;8206;51.440;6.914;2022-12-13T15:30:26;-1.00;99.90
16198;DHT22;8206;51.440;6.914;2022-12-13T15:33:01;-1.00;99.90
16198;DHT22;8206;51.440;6.914;2022-12-13T15:35:29;-1.00;99.90
16198;DHT22;8206;51.440;6.914;2022-12-13T15:37:56;-1.00;99.90
16198;DHT22;8206;51.440;6.914;2022-12-13T15:40:23;-1.00;99.90
16198;DHT22;8206;51.440;6.914;2022-12-13T15:42:51;-1.10;99.90
16198;DHT22;8206;51.440;6.914;2022-12-13T15:45:20;-1.10;99.90
16198;DHT22;8206;51.440;6.914;2022-12-13T15:47:49;-1.10;99.90
16198;DHT22;8206;51.440;6.914;2022-12-13T15:50:30;-1.10;99.90
16198;DHT22;8206;51.440;6.914;2022-12-13T15:52:59;-1.10;99.90
16198;DHT22;8206;51.440;6.914;2022-12-13T15:55:32;-1.20;99.90
16198;DHT22;8206;51.440;6.914;2022-12-13T15:58:01;-1.20;99.90
16198;DHT22;8206;51.440;6.914;2022-12-13T16:00:29;-1.20;99.90
16198;DHT22;8206;51.440;6.914;2022-12-13T16:02:59;-1.20;99.90
16198;DHT22;8206;51.440;6.914;2022-12-13T16:05:30;-1.20;99.90
16198;DHT22;8206;51.440;6.914;2022-12-13T16:08:01;-1.20;99.90
16198;DHT22;8206;51.440;6.914;2022-12-13T16:10:29;-1.20;99.90
16198;DHT22;8206;51.440;6.914;2022-12-13T16:12:59;-1.20;99.90
16198;DHT22;8206;51.440;6.914;2022-12-13T16:15:29;-1.20;99.90
16198;DHT22;8206;51.440;6.914;2022-12-13T16:18:06;-1.20;99.90
16198;DHT22;8206;51.440;6.914;2022-12-13T16:20:33;-1.20;99.90
16198;DHT22;8206;51.440;6.914;2022-12-13T16:23:00;-1.30;99.90
16198;DHT22;8206;51.440;6.914;2022-12-13T16:25:27;-1.30;99.90